首页
METAR-TAF:

METAR-TAF

机场 :

科利佐沃國際機場

葉卡捷琳堡, 俄罗斯

纬度: 56-50N, 经度: 060-38E, 海拔: 237米

当前天气观测

该预报发布于25分钟前的02:30 UTC
风速4节,风向东转东北,在东北之间变化
温度 13°C
湿度 82%
气压 1014 hPa
能见度10公里或以上
多云层高于4600英尺, 积雨云.

METAR: USSS 270230Z 07002MPS 040V100 9999 BKN046CB 13/10 Q1014 R26R/010060 NOSIG RMK QFE740/0986

时间: 07:55 (02:55 UTC)

预报

该预报发布于1小时和0分钟前的01:55 UTC
预报有效从27日的 03点(UTC)到 28日的 03点(UTC)
风速6节,风向东转东南,有时为19节阵风
能见度10公里或以上
多云层高于1500英尺, 积雨云.
短暂存在
从 27日的 03点(UTC)到 27日的 18点(UTC)
雷暴, 小雨
从 27日的 1800点(UTC)
风速6节,风向东转东南
能見度: 3100
散云层高于1100英尺
轻雾

TAF: USSS 270155Z 2703/2803 12003G10MPS 9999 BKN015CB TEMPO 2703/2718 -TSRA FM271800 11003MPS 3100 BR SCT011

超过4000个机场的气象观测和天气预报(METAR&TAF报告)。

可查询的气象台以黄色和红色小点在地图上表示。

将鼠标移到小点上方,可查看气象台名称。

然后点击查看天气观测和预报。

如需切换地图:点击带黑十字的绿色按钮放大地图;点击带横线的绿色按钮缩小地图;或者点击绿色箭头查看邻近地区的地图。


METAR-TAF: